sensor_id;sensor_type;location;lat;lon;timestamp;temperature;humidity
65826;DHT22;52586;-43.152;172.732;2022-09-20T00:00:18;18.90;48.80
65826;DHT22;52586;-43.152;172.732;2022-09-20T00:02:49;19.00;49.40
65826;DHT22;52586;-43.152;172.732;2022-09-20T00:05:20;19.00;48.90
65826;DHT22;52586;-43.152;172.732;2022-09-20T00:07:50;19.00;48.80
65826;DHT22;52586;-43.152;172.732;2022-09-20T00:10:21;19.10;48.70
65826;DHT22;52586;-43.152;172.732;2022-09-20T00:12:52;19.10;48.70
65826;DHT22;52586;-43.152;172.732;2022-09-20T00:15:25;19.10;48.60
65826;DHT22;52586;-43.152;172.732;2022-09-20T00:17:55;19.20;48.50
65826;DHT22;52586;-43.152;172.732;2022-09-20T00:20:26;19.20;48.30
65826;DHT22;52586;-43.152;172.732;2022-09-20T00:22:57;19.30;48.20
65826;DHT22;52586;-43.152;172.732;2022-09-20T00:25:27;19.30;48.10
65826;DHT22;52586;-43.152;172.732;2022-09-20T00:27:58;19.30;48.00
65826;DHT22;52586;-43.152;172.732;2022-09-20T00:30:32;19.40;47.90
65826;DHT22;52586;-43.152;172.732;2022-09-20T00:33:03;19.40;47.80
65826;DHT22;52586;-43.152;172.732;2022-09-20T00:35:33;19.40;47.70
65826;DHT22;52586;-43.152;172.732;2022-09-20T00:38:02;19.40;47.50
65826;DHT22;52586;-43.152;172.732;2022-09-20T00:40:33;19.50;47.60
65826;DHT22;52586;-43.152;172.732;2022-09-20T00:43:04;19.50;47.60
65826;DHT22;52586;-43.152;172.732;2022-09-20T00:45:36;19.50;47.60
65826;DHT22;52586;-43.152;172.732;2022-09-20T00:48:12;19.60;47.60
65826;DHT22;52586;-43.152;172.732;2022-09-20T00:50:46;19.60;47.60
65826;DHT22;52586;-43.152;172.732;2022-09-20T00:53:20;19.70;47.50
65826;DHT22;52586;-43.152;172.732;2022-09-20T00:55:55;19.60;47.40
65826;DHT22;52586;-43.152;172.732;2022-09-20T00:58:27;19.70;47.40
65826;DHT22;52586;-43.152;172.732;2022-09-20T01:01:02;19.70;47.40
65826;DHT22;52586;-43.152;172.732;2022-09-20T01:03:35;19.70;47.50
65826;DHT22;52586;-43.152;172.732;2022-09-20T01:06:10;19.80;47.50
65826;DHT22;52586;-43.152;172.732;2022-09-20T01:08:44;19.80;47.60
65826;DHT22;52586;-43.152;172.732;2022-09-20T01:11:15;19.80;47.60
65826;DHT22;52586;-43.152;172.732;2022-09-20T01:13:46;19.80;47.60
65826;DHT22;52586;-43.152;172.732;2022-09-20T01:16:19;19.80;47.50
65826;DHT22;52586;-43.152;172.732;2022-09-20T01:18:51;19.80;47.40
65826;DHT22;52586;-43.152;172.732;2022-09-20T01:21:22;19.90;47.30
65826;DHT22;52586;-43.152;172.732;2022-09-20T01:23:57;19.90;47.20
65826;DHT22;52586;-43.152;172.732;2022-09-20T01:26:47;19.90;47.10
65826;DHT22;52586;-43.152;172.732;2022-09-20T01:29:35;20.00;47.10
65826;DHT22;52586;-43.152;172.732;2022-09-20T01:32:10;20.00;46.80
65826;DHT22;52586;-43.152;172.732;2022-09-20T01:34:46;20.00;46.90
65826;DHT22;52586;-43.152;172.732;2022-09-20T01:37:21;20.10;46.80
65826;DHT22;52586;-43.152;172.732;2022-09-20T01:40:00;20.10;46.70
65826;DHT22;52586;-43.152;172.732;2022-09-20T01:42:35;20.10;46.60
65826;DHT22;52586;-43.152;172.732;2022-09-20T01:45:13;20.10;46.60
65826;DHT22;52586;-43.152;172.732;2022-09-20T01:47:49;20.20;46.60
65826;DHT22;52586;-43.152;172.732;2022-09-20T01:50:29;20.20;46.60
65826;DHT22;52586;-43.152;172.732;2022-09-20T01:56:37;20.20;46.80
65826;DHT22;52586;-43.152;172.732;2022-09-20T01:59:37;20.30;46.90
65826;DHT22;52586;-43.152;172.732;2022-09-20T02:02:55;20.30;46.90
65826;DHT22;52586;-43.152;172.732;2022-09-20T02:12:06;20.30;47.30
65826;DHT22;52586;-43.152;172.732;2022-09-20T02:14:48;20.30;46.70
65826;DHT22;52586;-43.152;172.732;2022-09-20T02:17:30;20.40;46.90
65826;DHT22;52586;-43.152;172.732;2022-09-20T02:20:18;20.40;47.00
65826;DHT22;52586;-43.152;172.732;2022-09-20T02:23:05;20.40;47.10
65826;DHT22;52586;-43.152;172.732;2022-09-20T02:26:06;20.40;47.10
65826;DHT22;52586;-43.152;172.732;2022-09-20T02:28:53;20.50;47.10
65826;DHT22;52586;-43.152;172.732;2022-09-20T02:31:52;20.50;47.10
65826;DHT22;52586;-43.152;172.732;2022-09-20T02:37:54;20.50;47.30
65826;DHT22;52586;-43.152;172.732;2022-09-20T02:40:45;20.50;47.30
65826;DHT22;52586;-43.152;172.732;2022-09-20T02:43:29;20.60;47.40
65826;DHT22;52586;-43.152;172.732;2022-09-20T02:46:08;20.60;47.50
65826;DHT22;52586;-43.152;172.732;2022-09-20T02:48:46;20.60;47.50
65826;DHT22;52586;-43.152;172.732;2022-09-20T02:51:23;20.60;47.50
65826;DHT22;52586;-43.152;172.732;2022-09-20T02:54:05;20.60;47.40
65826;DHT22;52586;-43.152;172.732;2022-09-20T02:56:46;20.60;47.30
65826;DHT22;52586;-43.152;172.732;2022-09-20T02:59:28;20.70;47.30
65826;DHT22;52586;-43.152;172.732;2022-09-20T03:02:08;20.70;47.20
65826;DHT22;52586;-43.152;172.732;2022-09-20T03:04:54;20.70;47.30
65826;DHT22;52586;-43.152;172.732;2022-09-20T03:07:45;20.70;47.40
65826;DHT22;52586;-43.152;172.732;2022-09-20T03:10:24;20.70;47.40
65826;DHT22;52586;-43.152;172.732;2022-09-20T03:13:10;20.70;47.30
65826;DHT22;52586;-43.152;172.732;2022-09-20T03:15:54;20.70;47.30
65826;DHT22;52586;-43.152;172.732;2022-09-20T03:18:35;20.80;47.20
65826;DHT22;52586;-43.152;172.732;2022-09-20T03:21:20;20.80;47.10
65826;DHT22;52586;-43.152;172.732;2022-09-20T03:24:03;20.80;47.10
65826;DHT22;52586;-43.152;172.732;2022-09-20T03:26:49;20.80;46.80
65826;DHT22;52586;-43.152;172.732;2022-09-20T03:29:33;20.80;46.80
65826;DHT22;52586;-43.152;172.732;2022-09-20T03:32:17;20.90;46.70
65826;DHT22;52586;-43.152;172.732;2022-09-20T03:35:01;20.90;46.60
65826;DHT22;52586;-43.152;172.732;2022-09-20T03:37:49;21.00;46.60
65826;DHT22;52586;-43.152;172.732;2022-09-20T03:40:51;21.00;46.70
65826;DHT22;52586;-43.152;172.732;2022-09-20T03:43:36;21.00;46.80
65826;DHT22;52586;-43.152;172.732;2022-09-20T03:46:17;21.00;46.70
65826;DHT22;52586;-43.152;172.732;2022-09-20T03:49:07;21.10;46.90
65826;DHT22;52586;-43.152;172.732;2022-09-20T03:51:47;21.10;46.80
65826;DHT22;52586;-43.152;172.732;2022-09-20T03:55:00;21.10;46.90
65826;DHT22;52586;-43.152;172.732;2022-09-20T03:57:45;21.10;47.00
65826;DHT22;52586;-43.152;172.732;2022-09-20T04:00:37;21.10;46.90
65826;DHT22;52586;-43.152;172.732;2022-09-20T04:03:35;21.10;46.90
65826;DHT22;52586;-43.152;172.732;2022-09-20T04:09:28;21.10;47.10
65826;DHT22;52586;-43.152;172.732;2022-09-20T04:12:10;21.10;47.00
65826;DHT22;52586;-43.152;172.732;2022-09-20T04:14:49;21.10;46.90
65826;DHT22;52586;-43.152;172.732;2022-09-20T04:17:34;21.10;46.90
65826;DHT22;52586;-43.152;172.732;2022-09-20T04:20:12;21.10;46.90
65826;DHT22;52586;-43.152;172.732;2022-09-20T04:22:45;21.10;46.70
65826;DHT22;52586;-43.152;172.732;2022-09-20T04:25:18;21.10;46.60
65826;DHT22;52586;-43.152;172.732;2022-09-20T04:27:53;21.10;46.80
65826;DHT22;52586;-43.152;172.732;2022-09-20T04:30:25;21.10;46.90
65826;DHT22;52586;-43.152;172.732;2022-09-20T04:33:01;21.10;46.80
65826;DHT22;52586;-43.152;172.732;2022-09-20T04:35:41;21.10;46.70
65826;DHT22;52586;-43.152;172.732;2022-09-20T04:38:28;21.10;46.60
65826;DHT22;52586;-43.152;172.732;2022-09-20T04:41:16;21.10;46.80
65826;DHT22;52586;-43.152;172.732;2022-09-20T04:44:12;21.10;46.80
65826;DHT22;52586;-43.152;172.732;2022-09-20T04:50:36;21.10;46.50
65826;DHT22;52586;-43.152;172.732;2022-09-20T04:56:37;21.10;45.80
65826;DHT22;52586;-43.152;172.732;2022-09-20T04:59:16;21.10;45.70
65826;DHT22;52586;-43.152;172.732;2022-09-20T05:02:21;21.10;46.10
65826;DHT22;52586;-43.152;172.732;2022-09-20T05:05:32;21.10;46.10
65826;DHT22;52586;-43.152;172.732;2022-09-20T05:11:30;21.10;46.10
65826;DHT22;52586;-43.152;172.732;2022-09-20T05:14:25;21.10;45.90
65826;DHT22;52586;-43.152;172.732;2022-09-20T05:17:25;21.10;45.80
65826;DHT22;52586;-43.152;172.732;2022-09-20T05:20:18;21.10;45.80
65826;DHT22;52586;-43.152;172.732;2022-09-20T05:26:12;21.20;46.10
65826;DHT22;52586;-43.152;172.732;2022-09-20T05:28:53;21.20;45.70
65826;DHT22;52586;-43.152;172.732;2022-09-20T05:31:32;21.20;45.90
65826;DHT22;52586;-43.152;172.732;2022-09-20T05:34:13;21.20;46.00
65826;DHT22;52586;-43.152;172.732;2022-09-20T05:36:52;21.20;46.10
65826;DHT22;52586;-43.152;172.732;2022-09-20T05:39:35;21.20;46.20
65826;DHT22;52586;-43.152;172.732;2022-09-20T05:42:15;21.20;46.20
65826;DHT22;52586;-43.152;172.732;2022-09-20T05:45:12;21.30;46.10
65826;DHT22;52586;-43.152;172.732;2022-09-20T05:47:52;21.30;46.20
65826;DHT22;52586;-43.152;172.732;2022-09-20T05:50:34;21.30;46.20
65826;DHT22;52586;-43.152;172.732;2022-09-20T05:53:27;21.30;46.10
65826;DHT22;52586;-43.152;172.732;2022-09-20T05:56:11;21.30;46.10
65826;DHT22;52586;-43.152;172.732;2022-09-20T05:58:59;21.30;46.00
65826;DHT22;52586;-43.152;172.732;2022-09-20T06:01:36;21.30;46.10
65826;DHT22;52586;-43.152;172.732;2022-09-20T06:04:15;21.30;46.30
65826;DHT22;52586;-43.152;172.732;2022-09-20T06:06:54;21.30;46.30
65826;DHT22;52586;-43.152;172.732;2022-09-20T06:09:46;21.30;46.50
65826;DHT22;52586;-43.152;172.732;2022-09-20T06:12:32;21.30;46.60
65826;DHT22;52586;-43.152;172.732;2022-09-20T06:15:13;21.30;46.70
65826;DHT22;52586;-43.152;172.732;2022-09-20T06:17:55;21.30;46.70
65826;DHT22;52586;-43.152;172.732;2022-09-20T06:20:29;21.30;46.70
65826;DHT22;52586;-43.152;172.732;2022-09-20T06:23:04;21.30;46.70
65826;DHT22;52586;-43.152;172.732;2022-09-20T06:25:40;21.30;46.70
65826;DHT22;52586;-43.152;172.732;2022-09-20T06:28:16;21.30;46.60
65826;DHT22;52586;-43.152;172.732;2022-09-20T06:30:49;21.20;46.60
65826;DHT22;52586;-43.152;172.732;2022-09-20T06:33:21;21.20;46.70
65826;DHT22;52586;-43.152;172.732;2022-09-20T06:35:55;21.20;46.80
65826;DHT22;52586;-43.152;172.732;2022-09-20T06:38:54;21.20;46.80
65826;DHT22;52586;-43.152;172.732;2022-09-20T06:41:44;21.20;46.90
65826;DHT22;52586;-43.152;172.732;2022-09-20T06:44:16;21.20;47.00
65826;DHT22;52586;-43.152;172.732;2022-09-20T06:46:47;21.20;47.00
65826;DHT22;52586;-43.152;172.732;2022-09-20T06:49:20;21.20;47.00
65826;DHT22;52586;-43.152;172.732;2022-09-20T06:51:51;21.10;46.90
65826;DHT22;52586;-43.152;172.732;2022-09-20T06:54:22;21.10;46.90
65826;DHT22;52586;-43.152;172.732;2022-09-20T06:56:53;21.10;46.90
65826;DHT22;52586;-43.152;172.732;2022-09-20T06:59:26;21.10;47.00
65826;DHT22;52586;-43.152;172.732;2022-09-20T07:01:57;21.10;46.90
65826;DHT22;52586;-43.152;172.732;2022-09-20T07:04:27;21.10;47.00
65826;DHT22;52586;-43.152;172.732;2022-09-20T07:07:00;21.00;46.90
65826;DHT22;52586;-43.152;172.732;2022-09-20T07:09:31;21.00;47.00
65826;DHT22;52586;-43.152;172.732;2022-09-20T07:12:02;21.00;47.10
65826;DHT22;52586;-43.152;172.732;2022-09-20T07:14:36;21.00;47.10
65826;DHT22;52586;-43.152;172.732;2022-09-20T07:17:06;20.90;47.10
65826;DHT22;52586;-43.152;172.732;2022-09-20T07:19:37;20.90;47.10
65826;DHT22;52586;-43.152;172.732;2022-09-20T07:22:08;20.90;47.10
65826;DHT22;52586;-43.152;172.732;2022-09-20T07:24:38;20.90;47.10
65826;DHT22;52586;-43.152;172.732;2022-09-20T07:27:11;20.90;47.10
65826;DHT22;52586;-43.152;172.732;2022-09-20T07:29:45;20.90;47.20
65826;DHT22;52586;-43.152;172.732;2022-09-20T07:32:15;20.90;47.20
65826;DHT22;52586;-43.152;172.732;2022-09-20T07:34:46;20.90;47.20
65826;DHT22;52586;-43.152;172.732;2022-09-20T07:37:17;20.80;47.20
65826;DHT22;52586;-43.152;172.732;2022-09-20T07:39:48;20.80;47.30
65826;DHT22;52586;-43.152;172.732;2022-09-20T07:42:19;20.80;47.30
65826;DHT22;52586;-43.152;172.732;2022-09-20T07:44:51;20.70;47.40
65826;DHT22;52586;-43.152;172.732;2022-09-20T07:47:22;20.70;47.40
65826;DHT22;52586;-43.152;172.732;2022-09-20T07:49:54;20.70;47.40
65826;DHT22;52586;-43.152;172.732;2022-09-20T07:52:25;20.70;47.50
65826;DHT22;52586;-43.152;172.732;2022-09-20T07:54:55;20.70;47.50
65826;DHT22;52586;-43.152;172.732;2022-09-20T07:57:26;20.70;47.50
65826;DHT22;52586;-43.152;172.732;2022-09-20T07:59:59;20.70;47.50
65826;DHT22;52586;-43.152;172.732;2022-09-20T08:02:29;20.60;47.40
65826;DHT22;52586;-43.152;172.732;2022-09-20T08:05:00;20.60;47.50
65826;DHT22;52586;-43.152;172.732;2022-09-20T08:07:31;20.60;47.50
65826;DHT22;52586;-43.152;172.732;2022-09-20T08:10:02;20.60;47.60
65826;DHT22;52586;-43.152;172.732;2022-09-20T08:12:33;20.50;47.60
65826;DHT22;52586;-43.152;172.732;2022-09-20T08:15:06;20.50;47.60
65826;DHT22;52586;-43.152;172.732;2022-09-20T08:17:37;20.50;47.70
65826;DHT22;52586;-43.152;172.732;2022-09-20T08:20:08;20.50;47.70
65826;DHT22;52586;-43.152;172.732;2022-09-20T08:22:39;20.50;47.70
65826;DHT22;52586;-43.152;172.732;2022-09-20T08:25:10;20.50;47.70
65826;DHT22;52586;-43.152;172.732;2022-09-20T08:27:40;20.40;47.70
65826;DHT22;52586;-43.152;172.732;2022-09-20T08:30:13;20.40;47.80
65826;DHT22;52586;-43.152;172.732;2022-09-20T08:32:44;20.40;47.90
65826;DHT22;52586;-43.152;172.732;2022-09-20T08:35:14;20.40;47.90
65826;DHT22;52586;-43.152;172.732;2022-09-20T08:37:45;20.40;47.90
65826;DHT22;52586;-43.152;172.732;2022-09-20T08:40:20;20.30;47.90
65826;DHT22;52586;-43.152;172.732;2022-09-20T08:42:53;20.30;47.90
65826;DHT22;52586;-43.152;172.732;2022-09-20T08:45:26;20.30;47.90
65826;DHT22;52586;-43.152;172.732;2022-09-20T08:47:59;20.30;48.00
65826;DHT22;52586;-43.152;172.732;2022-09-20T08:50:32;20.20;47.90
65826;DHT22;52586;-43.152;172.732;2022-09-20T08:53:03;20.20;47.90
65826;DHT22;52586;-43.152;172.732;2022-09-20T08:55:34;20.20;48.00
65826;DHT22;52586;-43.152;172.732;2022-09-20T08:58:09;20.20;48.00
65826;DHT22;52586;-43.152;172.732;2022-09-20T09:00:44;20.20;48.10
65826;DHT22;52586;-43.152;172.732;2022-09-20T09:03:16;20.20;48.20
65826;DHT22;52586;-43.152;172.732;2022-09-20T09:05:47;20.10;48.20
65826;DHT22;52586;-43.152;172.732;2022-09-20T09:08:21;20.10;48.30
65826;DHT22;52586;-43.152;172.732;2022-09-20T09:10:55;20.10;49.00
65826;DHT22;52586;-43.152;172.732;2022-09-20T09:13:29;20.00;48.40
65826;DHT22;52586;-43.152;172.732;2022-09-20T09:16:08;20.00;48.40
65826;DHT22;52586;-43.152;172.732;2022-09-20T09:18:43;20.00;48.50
65826;DHT22;52586;-43.152;172.732;2022-09-20T09:21:18;20.00;48.50
65826;DHT22;52586;-43.152;172.732;2022-09-20T09:23:54;20.00;48.50
65826;DHT22;52586;-43.152;172.732;2022-09-20T09:26:28;20.00;48.50
65826;DHT22;52586;-43.152;172.732;2022-09-20T09:29:15;19.90;48.50
65826;DHT22;52586;-43.152;172.732;2022-09-20T09:31:49;19.90;48.70
65826;DHT22;52586;-43.152;172.732;2022-09-20T09:34:25;19.90;48.80
65826;DHT22;52586;-43.152;172.732;2022-09-20T09:36:57;19.90;48.70
65826;DHT22;52586;-43.152;172.732;2022-09-20T09:39:32;19.90;48.80
65826;DHT22;52586;-43.152;172.732;2022-09-20T09:42:19;19.80;48.80
65826;DHT22;52586;-43.152;172.732;2022-09-20T09:44:51;19.80;48.80
65826;DHT22;52586;-43.152;172.732;2022-09-20T09:47:27;19.80;48.90
65826;DHT22;52586;-43.152;172.732;2022-09-20T09:49:58;19.70;48.90
65826;DHT22;52586;-43.152;172.732;2022-09-20T09:52:29;19.70;48.90
65826;DHT22;52586;-43.152;172.732;2022-09-20T09:55:02;19.70;48.90
65826;DHT22;52586;-43.152;172.732;2022-09-20T09:57:41;19.70;48.90
65826;DHT22;52586;-43.152;172.732;2022-09-20T10:00:15;19.70;48.90
65826;DHT22;52586;-43.152;172.732;2022-09-20T10:03:10;19.70;48.90
65826;DHT22;52586;-43.152;172.732;2022-09-20T10:05:50;19.60;48.90
65826;DHT22;52586;-43.152;172.732;2022-09-20T10:08:30;19.60;48.90
65826;DHT22;52586;-43.152;172.732;2022-09-20T10:11:15;19.60;49.00
65826;DHT22;52586;-43.152;172.732;2022-09-20T10:13:55;19.50;49.00
65826;DHT22;52586;-43.152;172.732;2022-09-20T10:16:35;19.50;49.10
65826;DHT22;52586;-43.152;172.732;2022-09-20T10:19:18;19.50;49.20
65826;DHT22;52586;-43.152;172.732;2022-09-20T10:21:58;19.40;49.20
65826;DHT22;52586;-43.152;172.732;2022-09-20T10:24:41;19.40;49.10
65826;DHT22;52586;-43.152;172.732;2022-09-20T10:27:27;19.40;49.10
65826;DHT22;52586;-43.152;172.732;2022-09-20T10:30:07;19.40;49.10
65826;DHT22;52586;-43.152;172.732;2022-09-20T10:32:53;19.40;49.10
65826;DHT22;52586;-43.152;172.732;2022-09-20T10:35:32;19.40;49.10
65826;DHT22;52586;-43.152;172.732;2022-09-20T10:38:16;19.30;49.20
65826;DHT22;52586;-43.152;172.732;2022-09-20T10:41:01;19.30;49.20
65826;DHT22;52586;-43.152;172.732;2022-09-20T10:44:12;19.30;49.30
65826;DHT22;52586;-43.152;172.732;2022-09-20T10:46:52;19.20;49.20
65826;DHT22;52586;-43.152;172.732;2022-09-20T10:49:30;19.20;49.20
65826;DHT22;52586;-43.152;172.732;2022-09-20T10:52:21;19.20;49.30
65826;DHT22;52586;-43.152;172.732;2022-09-20T10:55:12;19.20;49.30
65826;DHT22;52586;-43.152;172.732;2022-09-20T11:00:55;19.20;49.30
65826;DHT22;52586;-43.152;172.732;2022-09-20T11:03:42;19.10;49.30
65826;DHT22;52586;-43.152;172.732;2022-09-20T11:06:19;19.10;49.30
65826;DHT22;52586;-43.152;172.732;2022-09-20T11:08:56;19.10;49.30
65826;DHT22;52586;-43.152;172.732;2022-09-20T11:11:33;19.10;49.40
65826;DHT22;52586;-43.152;172.732;2022-09-20T11:14:08;19.10;49.40
65826;DHT22;52586;-43.152;172.732;2022-09-20T11:16:44;19.00;49.40
65826;DHT22;52586;-43.152;172.732;2022-09-20T11:19:21;19.00;49.40
65826;DHT22;52586;-43.152;172.732;2022-09-20T11:21:58;19.00;49.50
65826;DHT22;52586;-43.152;172.732;2022-09-20T11:24:35;18.90;49.40
65826;DHT22;52586;-43.152;172.732;2022-09-20T11:27:11;18.90;49.50
65826;DHT22;52586;-43.152;172.732;2022-09-20T11:29:48;18.90;49.40
65826;DHT22;52586;-43.152;172.732;2022-09-20T11:32:22;18.90;49.40
65826;DHT22;52586;-43.152;172.732;2022-09-20T11:34:55;18.90;49.40
65826;DHT22;52586;-43.152;172.732;2022-09-20T11:37:31;18.90;49.40
65826;DHT22;52586;-43.152;172.732;2022-09-20T11:40:20;18.90;49.40
65826;DHT22;52586;-43.152;172.732;2022-09-20T11:42:52;18.90;49.50
65826;DHT22;52586;-43.152;172.732;2022-09-20T11:45:27;18.90;49.60
65826;DHT22;52586;-43.152;172.732;2022-09-20T11:48:01;18.80;49.60
65826;DHT22;52586;-43.152;172.732;2022-09-20T11:51:03;18.80;49.70
65826;DHT22;52586;-43.152;172.732;2022-09-20T11:53:55;18.80;49.70
65826;DHT22;52586;-43.152;172.732;2022-09-20T11:56:32;18.80;49.60
65826;DHT22;52586;-43.152;172.732;2022-09-20T11:59:05;18.80;49.60
65826;DHT22;52586;-43.152;172.732;2022-09-20T12:01:37;18.70;50.20
65826;DHT22;52586;-43.152;172.732;2022-09-20T12:04:18;18.70;49.60
65826;DHT22;52586;-43.152;172.732;2022-09-20T12:06:57;18.70;49.60
65826;DHT22;52586;-43.152;172.732;2022-09-20T12:09:31;18.70;49.60
65826;DHT22;52586;-43.152;172.732;2022-09-20T12:12:20;18.70;49.70
65826;DHT22;52586;-43.152;172.732;2022-09-20T12:14:55;18.70;49.70
65826;DHT22;52586;-43.152;172.732;2022-09-20T12:21:03;18.70;49.80
65826;DHT22;52586;-43.152;172.732;2022-09-20T12:24:08;18.60;49.80
65826;DHT22;52586;-43.152;172.732;2022-09-20T12:26:42;18.60;49.80
65826;DHT22;52586;-43.152;172.732;2022-09-20T12:32:53;18.60;49.80
65826;DHT22;52586;-43.152;172.732;2022-09-20T12:35:57;18.60;49.80
65826;DHT22;52586;-43.152;172.732;2022-09-20T12:38:45;18.50;49.70
65826;DHT22;52586;-43.152;172.732;2022-09-20T12:41:18;18.50;49.70
65826;DHT22;52586;-43.152;172.732;2022-09-20T12:44:02;18.50;49.80
65826;DHT22;52586;-43.152;172.732;2022-09-20T12:46:48;18.50;49.90
65826;DHT22;52586;-43.152;172.732;2022-09-20T12:49:35;18.50;49.90
65826;DHT22;52586;-43.152;172.732;2022-09-20T12:52:31;18.50;49.90
65826;DHT22;52586;-43.152;172.732;2022-09-20T12:58:33;18.40;49.90
65826;DHT22;52586;-43.152;172.732;2022-09-20T13:01:28;18.40;50.00
65826;DHT22;52586;-43.152;172.732;2022-09-20T13:07:31;18.40;50.00
65826;DHT22;52586;-43.152;172.732;2022-09-20T13:10:12;18.40;50.00
65826;DHT22;52586;-43.152;172.732;2022-09-20T13:12:45;18.30;49.90
65826;DHT22;52586;-43.152;172.732;2022-09-20T13:15:18;18.30;49.90
65826;DHT22;52586;-43.152;172.732;2022-09-20T13:17:51;18.30;50.00
65826;DHT22;52586;-43.152;172.732;2022-09-20T13:20:24;18.30;50.10
65826;DHT22;52586;-43.152;172.732;2022-09-20T13:23:00;18.20;50.00
65826;DHT22;52586;-43.152;172.732;2022-09-20T13:25:34;18.20;50.10
65826;DHT22;52586;-43.152;172.732;2022-09-20T13:28:11;18.20;50.10
65826;DHT22;52586;-43.152;172.732;2022-09-20T13:30:45;18.20;50.10
65826;DHT22;52586;-43.152;172.732;2022-09-20T13:33:19;18.20;50.10
65826;DHT22;52586;-43.152;172.732;2022-09-20T13:35:51;18.20;50.00
65826;DHT22;52586;-43.152;172.732;2022-09-20T13:38:29;18.20;50.10
65826;DHT22;52586;-43.152;172.732;2022-09-20T13:41:03;18.20;50.10
65826;DHT22;52586;-43.152;172.732;2022-09-20T13:43:38;18.10;50.00
65826;DHT22;52586;-43.152;172.732;2022-09-20T13:46:11;18.10;50.00
65826;DHT22;52586;-43.152;172.732;2022-09-20T13:48:45;18.10;50.00
65826;DHT22;52586;-43.152;172.732;2022-09-20T13:51:18;18.10;50.10
65826;DHT22;52586;-43.152;172.732;2022-09-20T13:53:51;18.10;50.20
65826;DHT22;52586;-43.152;172.732;2022-09-20T13:56:24;18.00;50.20
65826;DHT22;52586;-43.152;172.732;2022-09-20T13:59:02;18.00;50.20
65826;DHT22;52586;-43.152;172.732;2022-09-20T14:01:34;18.00;50.20
65826;DHT22;52586;-43.152;172.732;2022-09-20T14:04:12;18.00;50.20
65826;DHT22;52586;-43.152;172.732;2022-09-20T14:06:43;18.00;50.20
65826;DHT22;52586;-43.152;172.732;2022-09-20T14:09:22;18.00;50.20
65826;DHT22;52586;-43.152;172.732;2022-09-20T14:11:55;18.00;50.20
65826;DHT22;52586;-43.152;172.732;2022-09-20T14:14:27;18.00;50.20
65826;DHT22;52586;-43.152;172.732;2022-09-20T14:17:00;18.00;50.20
65826;DHT22;52586;-43.152;172.732;2022-09-20T14:19:37;17.90;50.20
65826;DHT22;52586;-43.152;172.732;2022-09-20T14:22:17;17.90;50.20
65826;DHT22;52586;-43.152;172.732;2022-09-20T14:25:00;17.90;50.30
65826;DHT22;52586;-43.152;172.732;2022-09-20T14:27:31;17.90;50.30
65826;DHT22;52586;-43.152;172.732;2022-09-20T14:30:02;17.80;50.30
65826;DHT22;52586;-43.152;172.732;2022-09-20T14:32:37;17.80;50.30
65826;DHT22;52586;-43.152;172.732;2022-09-20T14:35:15;17.80;50.30
65826;DHT22;52586;-43.152;172.732;2022-09-20T14:37:48;17.80;50.30
65826;DHT22;52586;-43.152;172.732;2022-09-20T14:40:26;17.80;50.30
65826;DHT22;52586;-43.152;172.732;2022-09-20T14:42:58;17.80;50.40
65826;DHT22;52586;-43.152;172.732;2022-09-20T14:45:30;17.80;50.30
65826;DHT22;52586;-43.152;172.732;2022-09-20T14:48:03;17.80;50.30
65826;DHT22;52586;-43.152;172.732;2022-09-20T14:50:36;17.80;50.40
65826;DHT22;52586;-43.152;172.732;2022-09-20T14:53:22;17.70;50.40
65826;DHT22;52586;-43.152;172.732;2022-09-20T14:56:06;17.70;50.50
65826;DHT22;52586;-43.152;172.732;2022-09-20T14:59:00;17.70;50.50
65826;DHT22;52586;-43.152;172.732;2022-09-20T15:01:32;17.70;50.50
65826;DHT22;52586;-43.152;172.732;2022-09-20T15:04:07;17.70;50.50
65826;DHT22;52586;-43.152;172.732;2022-09-20T15:06:39;17.70;50.50
65826;DHT22;52586;-43.152;172.732;2022-09-20T15:09:11;17.60;50.50
65826;DHT22;52586;-43.152;172.732;2022-09-20T15:11:44;17.70;50.50
65826;DHT22;52586;-43.152;172.732;2022-09-20T15:14:16;17.60;50.50
65826;DHT22;52586;-43.152;172.732;2022-09-20T15:16:47;17.70;50.50
65826;DHT22;52586;-43.152;172.732;2022-09-20T15:19:18;17.60;50.40
65826;DHT22;52586;-43.152;172.732;2022-09-20T15:21:48;17.60;50.50
65826;DHT22;52586;-43.152;172.732;2022-09-20T15:24:19;17.60;50.50
65826;DHT22;52586;-43.152;172.732;2022-09-20T15:26:51;17.60;50.60
65826;DHT22;52586;-43.152;172.732;2022-09-20T15:29:22;17.60;50.60
65826;DHT22;52586;-43.152;172.732;2022-09-20T15:31:53;17.60;50.60
65826;DHT22;52586;-43.152;172.732;2022-09-20T15:34:24;17.50;50.60
65826;DHT22;52586;-43.152;172.732;2022-09-20T15:36:55;17.50;50.60
65826;DHT22;52586;-43.152;172.732;2022-09-20T15:39:25;17.50;50.60
65826;DHT22;52586;-43.152;172.732;2022-09-20T15:41:58;17.50;50.60
65826;DHT22;52586;-43.152;172.732;2022-09-20T15:44:29;17.50;50.60
65826;DHT22;52586;-43.152;172.732;2022-09-20T15:46:59;17.50;50.60
65826;DHT22;52586;-43.152;172.732;2022-09-20T15:49:31;17.50;50.60
65826;DHT22;52586;-43.152;172.732;2022-09-20T15:52:02;17.50;50.60
65826;DHT22;52586;-43.152;172.732;2022-09-20T15:54:32;17.50;50.60
65826;DHT22;52586;-43.152;172.732;2022-09-20T15:57:05;17.50;51.30
65826;DHT22;52586;-43.152;172.732;2022-09-20T15:59:36;17.40;50.70
65826;DHT22;52586;-43.152;172.732;2022-09-20T16:02:07;17.40;50.70
65826;DHT22;52586;-43.152;172.732;2022-09-20T16:04:39;17.40;50.70
65826;DHT22;52586;-43.152;172.732;2022-09-20T16:07:10;17.40;50.70
65826;DHT22;52586;-43.152;172.732;2022-09-20T16:09:42;17.40;50.70
65826;DHT22;52586;-43.152;172.732;2022-09-20T16:12:15;17.40;50.70
65826;DHT22;52586;-43.152;172.732;2022-09-20T16:14:45;17.40;50.70
65826;DHT22;52586;-43.152;172.732;2022-09-20T16:17:16;17.40;50.70
65826;DHT22;52586;-43.152;172.732;2022-09-20T16:20:08;17.40;50.70
65826;DHT22;52586;-43.152;172.732;2022-09-20T16:22:37;17.40;50.70
65826;DHT22;52586;-43.152;172.732;2022-09-20T16:25:08;17.40;50.80
65826;DHT22;52586;-43.152;172.732;2022-09-20T16:27:41;17.40;50.80
65826;DHT22;52586;-43.152;172.732;2022-09-20T16:30:12;17.30;50.80
65826;DHT22;52586;-43.152;172.732;2022-09-20T16:32:43;17.30;50.80
65826;DHT22;52586;-43.152;172.732;2022-09-20T16:35:15;17.30;50.80
65826;DHT22;52586;-43.152;172.732;2022-09-20T16:37:46;17.30;50.90